Time;durP1;ratioP1;P1;durP2;ratioP2;P2;SDS_P1;SDS_P2;PMS_P1;PMS_P2;Temp;Humidity;BMP_temperature;BMP_pressure;BME280_temperature;BME280_humidity;BME280_pressure;Samples;Min_cycle;Max_cycle;Signal;HPM_P1;HPM_P2
2021/12/26 00:00:24;;;;;;;0.82;0.55;;;11.50;83.10;;;;;;5052832;28;20479;-83
2021/12/26 00:02:50;;;;;;;0.25;0.25;;;11.50;83.10;;;;;;5049485;28;20029;-81
2021/12/26 00:05:18;;;;;;;1.00;0.60;;;11.50;83.10;;;;;;5056147;28;20021;-82
2021/12/26 00:07:45;;;;;;;1.95;0.50;;;11.50;83.40;;;;;;5062819;28;20020;-79
2021/12/26 00:10:15;;;;;;;0.88;0.50;;;11.50;82.80;;;;;;5060647;28;20032;-79
2021/12/26 00:12:41;;;;;;;0.60;0.60;;;11.60;82.70;;;;;;5060754;28;20017;-79
2021/12/26 00:15:08;;;;;;;3.75;0.57;;;11.60;82.90;;;;;;5057682;28;20080;-81
2021/12/26 00:17:33;;;;;;;2.03;0.63;;;11.60;83.00;;;;;;5055887;28;20050;-77
2021/12/26 00:19:59;;;;;;;1.58;0.60;;;11.60;83.10;;;;;;5051563;28;20104;-79
2021/12/26 00:22:27;;;;;;;1.63;0.60;;;11.60;83.90;;;;;;5052570;28;20023;-79
2021/12/26 00:24:53;;;;;;;2.00;0.60;;;11.50;83.60;;;;;;5050472;28;20442;-78
2021/12/26 00:27:19;;;;;;;1.35;0.60;;;11.50;83.90;;;;;;5053188;28;20051;-79
2021/12/26 00:29:46;;;;;;;1.15;0.60;;;11.50;84.20;;;;;;5054784;28;20031;-81
2021/12/26 00:32:12;;;;;;;0.60;0.60;;;11.40;84.10;;;;;;5056843;28;20506;-79
2021/12/26 00:34:41;;;;;;;0.50;0.20;;;11.50;84.20;;;;;;5057950;28;20029;-79
2021/12/26 00:37:07;;;;;;;0.30;0.30;;;11.60;83.20;;;;;;5055325;28;20309;-78
2021/12/26 00:39:35;;;;;;;2.05;0.35;;;11.20;82.90;;;;;;5054590;28;20029;-79
2021/12/26 00:42:01;;;;;;;0.35;0.35;;;11.70;82.60;;;;;;5048584;28;20048;-79
2021/12/26 00:44:27;;;;;;;2.55;0.60;;;11.80;82.40;;;;;;5050820;28;20021;-80
2021/12/26 00:46:53;;;;;;;2.67;0.50;;;11.80;81.90;;;;;;5054077;28;20028;-79
2021/12/26 00:49:21;;;;;;;0.35;0.35;;;11.90;81.90;;;;;;5046198;28;20104;-79
2021/12/26 00:51:47;;;;;;;0.60;0.50;;;11.80;82.40;;;;;;5048775;28;20256;-79
2021/12/26 00:54:13;;;;;;;1.23;0.80;;;11.70;82.40;;;;;;5045483;28;20232;-80
2021/12/26 00:56:39;;;;;;;0.43;0.40;;;11.70;82.50;;;;;;5040480;28;20649;-79
2021/12/26 00:59:06;;;;;;;1.83;0.75;;;11.70;82.70;;;;;;5048673;28;20029;-80
2021/12/26 01:01:56;;;;;;;0.55;0.45;;;11.70;82.70;;;;;;5047345;28;20076;-79
2021/12/26 01:04:24;;;;;;;2.10;1.02;;;11.80;82.20;;;;;;5045061;28;20056;-79
2021/12/26 01:06:51;;;;;;;0.43;0.40;;;11.80;82.70;;;;;;5045299;28;20025;-80
2021/12/26 01:09:22;;;;;;;1.45;0.77;;;11.80;82.50;;;;;;5048840;28;20057;-78
2021/12/26 01:11:52;;;;;;;0.85;0.60;;;11.70;82.70;;;;;;5046756;28;20036;-79
2021/12/26 01:14:27;;;;;;;0.63;0.30;;;11.80;82.70;;;;;;5047789;28;20282;-79
2021/12/26 01:17:03;;;;;;;1.40;0.47;;;11.80;82.60;;;;;;5044144;28;20144;-78
2021/12/26 01:19:39;;;;;;;0.65;0.28;;;11.80;82.80;;;;;;5045541;28;20029;-80
2021/12/26 01:22:06;;;;;;;1.50;0.70;;;11.90;82.70;;;;;;5044155;28;20037;-80
2021/12/26 01:24:55;;;;;;;0.73;0.50;;;11.90;82.50;;;;;;5045470;28;20442;-79
2021/12/26 01:27:25;;;;;;;1.45;0.50;;;11.90;82.80;;;;;;5048228;28;20158;-79
2021/12/26 01:29:52;;;;;;;0.40;0.40;;;11.90;82.70;;;;;;5049037;28;20036;-80
2021/12/26 01:32:19;;;;;;;0.70;0.45;;;11.90;82.60;;;;;;5050514;28;20048;-79
2021/12/26 01:34:46;;;;;;;0.65;0.50;;;12.00;82.60;;;;;;5045752;28;20032;-81
2021/12/26 01:37:13;;;;;;;0.43;0.30;;;11.90;82.70;;;;;;5048688;28;20255;-80
2021/12/26 01:39:39;;;;;;;0.60;0.45;;;11.90;82.90;;;;;;5045999;28;20021;-79
2021/12/26 01:42:05;;;;;;;0.22;0.22;;;11.80;83.20;;;;;;5047164;28;20021;-79
2021/12/26 01:44:34;;;;;;;0.85;0.40;;;11.90;82.80;;;;;;5046233;28;20060;-81
2021/12/26 01:47:01;;;;;;;1.00;0.40;;;11.90;82.80;;;;;;5047952;28;20533;-81
2021/12/26 01:49:30;;;;;;;4.50;2.28;;;11.90;82.90;;;;;;5044141;28;20021;-82
2021/12/26 01:51:59;;;;;;;3.22;1.10;;;11.80;83.30;;;;;;5044844;28;20021;-79
2021/12/26 01:54:39;;;;;;;1.13;0.52;;;11.80;83.30;;;;;;5047215;28;20020;-80
2021/12/26 01:57:08;;;;;;;0.55;0.30;;;11.70;83.00;;;;;;5043768;28;20049;-81
2021/12/26 01:59:34;;;;;;;0.15;0.15;;;11.80;82.80;;;;;;5045394;28;20029;-81
2021/12/26 02:02:00;;;;;;;1.95;0.47;;;11.90;82.50;;;;;;5043925;28;20037;-79
2021/12/26 02:04:28;;;;;;;0.28;0.28;;;11.90;82.50;;;;;;5046547;28;20427;-78
2021/12/26 02:07:03;;;;;;;3.13;0.20;;;11.90;82.50;;;;;;5046049;28;20017;-79
2021/12/26 02:09:29;;;;;;;0.28;0.20;;;12.00;82.20;;;;;;5050638;28;20092;-80
2021/12/26 02:11:59;;;;;;;0.43;0.17;;;12.10;81.50;;;;;;5053896;28;20450;-79
2021/12/26 02:14:25;;;;;;;0.17;0.15;;;12.10;81.20;;;;;;5051312;28;20040;-81
2021/12/26 02:16:51;;;;;;;0.20;0.20;;;12.10;81.30;;;;;;5052365;28;20056;-83
2021/12/26 02:19:17;;;;;;;0.57;0.10;;;12.10;81.20;;;;;;5058209;28;20017;-79
2021/12/26 02:24:27;;;;;;;0.32;0.20;;;12.20;80.90;;;;;;5059922;28;20085;-78
2021/12/26 02:29:43;;;;;;;0.20;0.17;;;12.20;80.50;;;;;;5054954;28;20132;-79
2021/12/26 02:32:11;;;;;;;0.30;0.30;;;12.20;80.90;;;;;;5051175;28;20021;-80
2021/12/26 02:34:36;;;;;;;0.10;0.10;;;12.20;80.80;;;;;;5058125;28;20028;-81
2021/12/26 02:37:03;;;;;;;0.10;0.10;;;12.30;80.50;;;;;;5052183;28;20454;-79
2021/12/26 02:39:32;;;;;;;0.60;0.40;;;12.20;80.60;;;;;;5049532;28;20036;-78
2021/12/26 02:42:00;;;;;;;0.30;0.30;;;12.30;81.00;;;;;;5049180;28;20029;-79
2021/12/26 02:44:26;;;;;;;1.55;0.40;;;12.20;81.20;;;;;;5052792;28;20027;-79
2021/12/26 02:46:52;;;;;;;0.20;0.20;;;12.20;81.80;;;;;;5055827;28;20096;-78
2021/12/26 02:49:25;;;;;;;0.55;0.35;;;12.20;82.20;;;;;;5056905;28;20017;-80
2021/12/26 02:51:54;;;;;;;1.75;0.25;;;12.20;82.70;;;;;;5056019;28;20021;-79
2021/12/26 02:54:23;;;;;;;0.90;0.30;;;12.20;82.90;;;;;;5052998;28;20024;-80
2021/12/26 02:56:49;;;;;;;1.73;0.25;;;12.30;83.00;;;;;;5046671;28;20398;-78
2021/12/26 02:59:15;;;;;;;2.10;0.40;;;12.20;83.30;;;;;;5048472;28;20051;-79
2021/12/26 03:01:41;;;;;;;1.13;0.40;;;12.20;83.90;;;;;;5051355;28;20400;-80
2021/12/26 03:04:08;;;;;;;0.20;0.20;;;12.20;84.10;;;;;;5049910;28;20483;-80
2021/12/26 03:06:55;;;;;;;0.28;0.28;;;12.20;85.00;;;;;;5059024;28;20032;-78
2021/12/26 03:09:20;;;;;;;0.30;0.30;;;12.20;84.40;;;;;;5053561;28;20108;-79
2021/12/26 03:11:47;;;;;;;0.65;0.55;;;12.20;84.10;;;;;;5045451;28;20062;-79
2021/12/26 03:14:13;;;;;;;0.40;0.20;;;12.20;84.30;;;;;;5041594;28;20013;-78
2021/12/26 03:16:48;;;;;;;1.65;0.30;;;12.10;84.40;;;;;;5041029;28;20411;-78
2021/12/26 03:19:27;;;;;;;;;;;;;;;;;;;;;
2021/12/26 03:21:53;;;;;;;0.63;0.32;;;12.10;85.30;;;;;;5039940;28;20025;-80
2021/12/26 03:24:19;;;;;;;0.25;0.20;;;10.80;84.80;;;;;;5040450;28;20035;-79
2021/12/26 03:26:44;;;;;;;0.85;0.20;;;12.00;85.80;;;;;;5041418;28;20027;-79
2021/12/26 03:29:11;;;;;;;0.82;0.40;;;12.10;86.00;;;;;;5042013;28;20214;-78
2021/12/26 03:31:39;;;;;;;1.17;0.30;;;12.10;86.30;;;;;;5047382;28;20096;-78
2021/12/26 03:34:04;;;;;;;0.30;0.30;;;12.10;86.20;;;;;;5045346;28;20122;-79
2021/12/26 03:36:30;;;;;;;0.50;0.22;;;12.10;86.60;;;;;;5042709;28;20040;-78
2021/12/26 03:38:56;;;;;;;0.30;0.30;;;12.10;86.80;;;;;;5042289;28;20063;-78
2021/12/26 03:41:22;;;;;;;0.35;0.30;;;12.10;86.80;;;;;;5045524;28;20029;-77
2021/12/26 03:43:48;;;;;;;0.50;0.50;;;12.10;86.70;;;;;;5051957;28;20037;-80
2021/12/26 03:46:14;;;;;;;0.30;0.30;;;12.20;86.70;;;;;;5050505;28;20025;-79
2021/12/26 03:48:40;;;;;;;0.85;0.60;;;12.10;86.80;;;;;;5047987;28;20025;-78
2021/12/26 03:51:06;;;;;;;0.80;0.60;;;12.20;86.70;;;;;;5048484;28;20033;-78
2021/12/26 03:53:34;;;;;;;1.15;0.50;;;12.20;86.90;;;;;;5045467;28;20635;-81
2021/12/26 03:56:03;;;;;;;1.38;0.52;;;12.20;86.90;;;;;;5042679;28;20404;-78
2021/12/26 03:58:31;;;;;;;0.50;0.50;;;12.20;87.00;;;;;;5039745;28;20029;-77
2021/12/26 04:00:57;;;;;;;0.38;0.38;;;11.90;87.00;;;;;;5040984;28;20037;-78
2021/12/26 04:03:23;;;;;;;0.30;0.30;;;12.10;87.60;;;;;;5041702;28;20324;-78
2021/12/26 04:05:49;;;;;;;0.60;0.60;;;11.70;87.30;;;;;;5041420;28;20037;-80
2021/12/26 04:08:15;;;;;;;0.63;0.50;;;12.10;87.90;;;;;;5040937;28;20112;-78
2021/12/26 04:10:41;;;;;;;2.03;0.60;;;12.00;87.90;;;;;;5039921;28;20122;-78
2021/12/26 04:13:10;;;;;;;0.75;0.40;;;12.00;88.50;;;;;;5041229;28;20424;-78
2021/12/26 04:15:36;;;;;;;2.17;0.50;;;12.00;88.20;;;;;;5039936;28;20017;-79
2021/12/26 04:18:04;;;;;;;2.55;0.80;;;12.00;89.30;;;;;;5040528;28;20052;-77
2021/12/26 04:20:38;;;;;;;0.57;0.52;;;11.90;89.80;;;;;;5041998;28;20527;-78
2021/12/26 04:23:04;;;;;;;1.17;0.50;;;11.90;90.00;;;;;;5040423;28;20419;-77
2021/12/26 04:25:30;;;;;;;1.77;0.65;;;11.90;90.00;;;;;;5040375;28;20113;-80
2021/12/26 04:27:56;;;;;;;0.90;0.50;;;11.90;90.00;;;;;;5041906;28;20024;-81
2021/12/26 04:30:24;;;;;;;1.40;0.82;;;11.90;90.00;;;;;;5039186;28;20546;-81
2021/12/26 04:32:51;;;;;;;1.15;0.70;;;11.80;90.10;;;;;;5041501;28;20503;-79
2021/12/26 04:35:19;;;;;;;1.90;0.63;;;11.70;90.20;;;;;;5041069;28;20013;-80
2021/12/26 04:37:45;;;;;;;0.95;0.95;;;11.70;90.20;;;;;;5040823;28;20161;-80
2021/12/26 04:40:13;;;;;;;2.13;1.00;;;11.80;90.20;;;;;;5041858;28;20025;-81
2021/12/26 04:42:41;;;;;;;0.82;0.60;;;11.80;90.10;;;;;;5043173;28;20344;-79
2021/12/26 04:45:09;;;;;;;1.45;0.93;;;11.80;90.10;;;;;;5041573;28;20017;-81
2021/12/26 04:47:36;;;;;;;1.55;0.80;;;11.80;90.10;;;;;;5042669;28;20094;-79
2021/12/26 04:50:12;;;;;;;3.28;1.38;;;11.80;90.20;;;;;;5045043;28;20108;-79
2021/12/26 04:52:39;;;;;;;4.55;1.88;;;11.80;90.20;;;;;;5048432;28;20025;-78
2021/12/26 04:55:17;;;;;;;6.57;2.80;;;11.80;90.50;;;;;;5048818;28;20032;-79
2021/12/26 04:57:44;;;;;;;6.78;2.53;;;11.70;90.80;;;;;;5051217;28;20079;-80
2021/12/26 05:00:15;;;;;;;3.58;1.38;;;11.60;90.80;;;;;;5048688;28;20119;-79
2021/12/26 05:02:42;;;;;;;2.63;1.45;;;11.60;90.90;;;;;;5048898;28;20070;-80
2021/12/26 05:05:10;;;;;;;1.20;1.10;;;11.60;91.10;;;;;;5048661;28;20302;-79
2021/12/26 05:07:37;;;;;;;1.83;0.93;;;11.50;91.30;;;;;;5048681;28;20029;-80
2021/12/26 05:10:05;;;;;;;2.05;1.20;;;11.60;91.50;;;;;;5048692;28;20124;-78
2021/12/26 05:12:31;;;;;;;3.05;1.65;;;11.50;91.80;;;;;;5052135;28;20134;-80
2021/12/26 05:14:56;;;;;;;5.75;1.83;;;11.60;92.30;;;;;;5051103;28;20309;-80
2021/12/26 05:17:22;;;;;;;3.08;1.55;;;11.40;92.70;;;;;;5054947;28;20064;-80
2021/12/26 05:19:48;;;;;;;1.35;1.02;;;11.30;92.90;;;;;;5055815;28;20033;-80
2021/12/26 05:22:17;;;;;;;1.60;1.10;;;11.20;93.40;;;;;;5056495;28;20014;-80
2021/12/26 05:24:43;;;;;;;1.83;1.20;;;11.20;93.70;;;;;;5053608;28;20025;-80
2021/12/26 05:27:09;;;;;;;3.08;1.30;;;11.10;94.10;;;;;;5048522;28;20066;-80
2021/12/26 05:29:34;;;;;;;2.90;1.30;;;11.10;94.60;;;;;;5047467;28;20047;-80
2021/12/26 05:32:00;;;;;;;3.25;1.20;;;11.00;94.60;;;;;;5048205;28;20590;-80
2021/12/26 05:34:26;;;;;;;2.97;1.50;;;11.00;94.80;;;;;;5046971;28;20017;-79
2021/12/26 05:36:51;;;;;;;1.70;1.30;;;10.90;95.10;;;;;;5046402;28;20252;-80
2021/12/26 05:39:18;;;;;;;4.93;2.80;;;10.90;95.80;;;;;;5043341;28;20032;-80
2021/12/26 05:41:44;;;;;;;6.80;3.03;;;10.90;96.40;;;;;;5042890;28;20079;-80
2021/12/26 05:44:10;;;;;;;8.45;4.03;;;10.80;96.40;;;;;;5042288;28;20261;-80
2021/12/26 05:46:37;;;;;;;8.23;4.28;;;10.80;97.00;;;;;;5042405;28;20021;-81
2021/12/26 05:49:03;;;;;;;9.38;5.15;;;10.70;97.50;;;;;;5044973;28;20086;-79
2021/12/26 05:51:30;;;;;;;6.60;3.25;;;10.70;97.60;;;;;;5045598;28;20035;-78
2021/12/26 05:53:55;;;;;;;7.47;2.90;;;10.60;97.60;;;;;;5048308;28;20025;-79
2021/12/26 05:56:21;;;;;;;9.93;4.40;;;10.50;97.80;;;;;;5049047;28;20535;-80
2021/12/26 05:58:48;;;;;;;9.40;5.93;;;10.50;98.00;;;;;;5048427;28;20051;-80
2021/12/26 06:01:14;;;;;;;10.30;5.97;;;10.50;98.60;;;;;;5050604;28;20132;-81
2021/12/26 06:03:40;;;;;;;13.63;7.93;;;10.40;99.00;;;;;;5051736;28;20121;-79
2021/12/26 06:06:06;;;;;;;17.63;8.70;;;10.40;99.20;;;;;;5050804;28;20036;-80
2021/12/26 06:08:32;;;;;;;10.63;5.90;;;10.30;99.30;;;;;;5054835;28;20025;-82
2021/12/26 06:10:58;;;;;;;9.20;5.60;;;10.40;99.50;;;;;;5054692;28;20025;-80
2021/12/26 06:13:24;;;;;;;10.00;5.28;;;10.40;99.90;;;;;;5048209;28;20025;-80
2021/12/26 06:15:51;;;;;;;9.23;4.28;;;10.30;99.70;;;;;;5054635;28;20115;-80
2021/12/26 06:18:17;;;;;;;12.70;5.10;;;10.20;99.80;;;;;;5059771;28;20013;-83
2021/12/26 06:20:42;;;;;;;9.55;5.85;;;10.20;99.90;;;;;;5064322;28;20021;-82
2021/12/26 06:23:09;;;;;;;11.93;6.00;;;10.20;99.90;;;;;;5060225;28;20384;-81
2021/12/26 06:25:37;;;;;;;11.65;6.97;;;10.20;99.90;;;;;;5057873;28;20025;-81
2021/12/26 06:28:03;;;;;;;11.20;5.70;;;10.10;99.90;;;;;;5066080;28;20032;-82
2021/12/26 06:30:30;;;;;;;9.50;4.93;;;10.10;99.90;;;;;;5062456;28;20288;-80
2021/12/26 06:32:56;;;;;;;7.28;4.65;;;10.00;99.90;;;;;;5042050;28;20037;-81
2021/12/26 06:35:21;;;;;;;11.98;4.57;;;9.90;99.90;;;;;;5056122;28;20020;-81
2021/12/26 06:37:47;;;;;;;12.80;4.88;;;9.90;99.90;;;;;;5058615;28;20025;-82
2021/12/26 06:40:16;;;;;;;12.52;5.93;;;9.90;99.90;;;;;;5057844;28;20033;-81
2021/12/26 06:42:44;;;;;;;12.00;6.05;;;10.00;99.90;;;;;;5052700;28;20092;-81
2021/12/26 06:45:14;;;;;;;10.00;5.68;;;9.90;99.90;;;;;;5048322;28;20025;-80
2021/12/26 06:47:46;;;;;;;7.38;4.95;;;9.90;99.90;;;;;;5047209;28;20365;-81
2021/12/26 06:50:16;;;;;;;9.95;5.47;;;9.80;99.90;;;;;;5046223;28;20486;-80
2021/12/26 06:52:42;;;;;;;14.95;6.65;;;10.00;99.90;;;;;;5047163;28;20240;-80
2021/12/26 06:55:26;;;;;;;12.65;6.90;;;9.90;99.50;;;;;;5049149;28;20017;-80
2021/12/26 06:57:52;;;;;;;3.60;2.60;;;10.50;99.30;;;;;;5046700;28;20671;-81
2021/12/26 07:00:30;;;;;;;2.92;1.70;;;10.30;97.80;;;;;;5047640;28;20033;-80
2021/12/26 07:02:55;;;;;;;3.25;2.00;;;10.20;96.80;;;;;;5044601;28;20028;-80
2021/12/26 07:05:23;;;;;;;3.47;2.13;;;10.30;96.60;;;;;;5047644;28;20021;-80
2021/12/26 07:07:49;;;;;;;2.30;1.40;;;10.30;97.70;;;;;;5048317;28;20017;-80
2021/12/26 07:10:15;;;;;;;1.85;1.00;;;10.30;96.30;;;;;;5046299;28;20055;-81
2021/12/26 07:12:42;;;;;;;0.75;0.75;;;10.40;95.80;;;;;;5049744;28;20021;-81
2021/12/26 07:15:11;;;;;;;1.13;0.68;;;10.40;94.40;;;;;;5046744;28;20270;-80
2021/12/26 07:17:38;;;;;;;1.48;1.00;;;10.90;93.90;;;;;;5045860;28;20074;-80
2021/12/26 07:20:05;;;;;;;3.95;0.80;;;10.70;94.20;;;;;;5048241;28;20190;-80
2021/12/26 07:22:31;;;;;;;1.67;0.90;;;10.60;93.70;;;;;;5048137;28;20025;-79
2021/12/26 07:24:57;;;;;;;2.75;2.00;;;10.70;93.00;;;;;;5045445;28;20040;-81
2021/12/26 07:27:23;;;;;;;2.15;1.67;;;10.70;93.40;;;;;;5044483;28;20025;-79
2021/12/26 07:29:50;;;;;;;1.58;1.20;;;10.80;93.60;;;;;;5048269;28;20021;-79
2021/12/26 07:32:16;;;;;;;1.38;1.00;;;10.80;91.70;;;;;;5047868;28;20021;-80
2021/12/26 07:34:44;;;;;;;2.28;1.48;;;10.90;91.20;;;;;;5047577;28;20332;-80
2021/12/26 07:37:10;;;;;;;1.80;1.33;;;10.90;91.50;;;;;;5049222;28;20561;-80
2021/12/26 07:39:36;;;;;;;0.70;0.70;;;10.10;91.10;;;;;;5049473;28;20025;-81
2021/12/26 07:42:04;;;;;;;1.70;1.10;;;10.80;90.30;;;;;;5049654;28;20033;-80
2021/12/26 07:44:29;;;;;;;3.13;1.30;;;12.60;90.60;;;;;;5049838;28;20067;-80
2021/12/26 07:46:55;;;;;;;4.38;0.90;;;10.90;90.70;;;;;;5049018;28;20021;-80
2021/12/26 07:49:23;;;;;;;3.47;2.10;;;11.00;90.10;;;;;;5050154;28;20062;-80
2021/12/26 07:51:50;;;;;;;3.03;1.73;;;11.30;90.30;;;;;;5051541;28;20100;-79
2021/12/26 07:54:17;;;;;;;2.78;1.77;;;11.90;90.20;;;;;;5051712;28;20013;-82
2021/12/26 07:56:43;;;;;;;2.67;1.70;;;11.20;89.80;;;;;;5048297;28;20288;-81
2021/12/26 07:59:11;;;;;;;6.57;3.60;;;11.20;89.60;;;;;;5048310;28;20021;-80
2021/12/26 08:01:37;;;;;;;2.28;1.80;;;11.30;88.90;;;;;;5044996;28;20333;-81
2021/12/26 08:04:07;;;;;;;1.70;1.38;;;11.30;89.70;;;;;;5047627;28;20019;-80
2021/12/26 08:06:33;;;;;;;2.88;1.10;;;11.30;88.80;;;;;;5047174;28;20522;-79
2021/12/26 08:08:59;;;;;;;1.70;1.30;;;11.40;87.80;;;;;;5052144;28;20021;-80
2021/12/26 08:11:25;;;;;;;3.60;2.60;;;11.40;88.40;;;;;;5050365;28;20029;-80
2021/12/26 08:13:51;;;;;;;3.35;2.03;;;11.50;87.90;;;;;;5051147;28;20025;-79
2021/12/26 08:16:18;;;;;;;3.85;2.22;;;11.50;87.90;;;;;;5054364;28;20060;-80
2021/12/26 08:18:44;;;;;;;3.92;2.50;;;11.60;87.90;;;;;;5056299;28;20046;-80
2021/12/26 08:21:10;;;;;;;5.43;2.25;;;11.60;88.40;;;;;;5053867;28;20519;-80
2021/12/26 08:23:36;;;;;;;3.55;2.28;;;11.60;87.90;;;;;;5053347;28;20021;-79
2021/12/26 08:26:02;;;;;;;7.03;3.20;;;11.70;87.20;;;;;;5044027;28;20033;-80
2021/12/26 08:28:29;;;;;;;3.80;2.03;;;11.70;88.00;;;;;;5044672;28;20048;-80
2021/12/26 08:30:55;;;;;;;3.42;1.73;;;11.70;86.80;;;;;;5044054;28;20060;-80
2021/12/26 08:33:21;;;;;;;3.88;1.90;;;11.80;85.90;;;;;;5043154;28;20572;-79
2021/12/26 08:35:48;;;;;;;8.18;3.95;;;11.80;86.80;;;;;;5039421;28;20108;-80
2021/12/26 08:38:16;;;;;;;4.93;2.92;;;11.90;88.50;;;;;;5040012;28;20021;-80
2021/12/26 08:40:43;;;;;;;5.00;3.25;;;12.00;88.60;;;;;;5039318;28;20033;-80
2021/12/26 08:43:08;;;;;;;6.47;4.50;;;13.50;90.00;;;;;;5039348;28;20217;-79
2021/12/26 08:45:36;;;;;;;12.88;6.70;;;12.00;88.60;;;;;;5038909;28;20029;-81
2021/12/26 08:48:03;;;;;;;13.38;6.47;;;12.10;89.30;;;;;;5039059;28;20056;-82
2021/12/26 08:50:29;;;;;;;7.63;4.13;;;12.20;89.90;;;;;;5039113;28;20045;-82
2021/12/26 08:52:55;;;;;;;6.85;3.85;;;12.30;88.00;;;;;;5040120;28;20510;-84
2021/12/26 08:55:45;;;;;;;5.95;3.72;;;12.60;88.10;;;;;;5036641;28;20667;-82
2021/12/26 08:58:11;;;;;;;5.50;3.45;;;13.00;87.30;;;;;;5037232;28;20091;-83
2021/12/26 09:00:38;;;;;;;5.90;3.63;;;13.10;86.40;;;;;;5038055;28;20040;-82
2021/12/26 09:03:04;;;;;;;5.60;2.95;;;13.40;85.80;;;;;;5037236;28;20025;-84
2021/12/26 09:05:29;;;;;;;5.20;2.90;;;13.40;84.90;;;;;;5037277;28;20040;-83
2021/12/26 09:07:56;;;;;;;4.68;3.40;;;13.40;85.10;;;;;;5037981;28;20017;-78
2021/12/26 09:10:21;;;;;;;4.43;2.83;;;13.50;85.10;;;;;;5038088;28;20025;-85
2021/12/26 09:12:47;;;;;;;4.68;2.88;;;13.50;82.80;;;;;;5037846;28;20590;-85
2021/12/26 09:15:13;;;;;;;4.90;3.13;;;13.50;81.20;;;;;;5039747;28;20686;-87
2021/12/26 09:17:41;;;;;;;7.55;4.40;;;13.60;80.60;;;;;;5040331;28;20101;-85
2021/12/26 09:20:10;;;;;;;8.30;4.68;;;13.60;82.60;;;;;;5041882;28;20190;-86
2021/12/26 09:22:36;;;;;;;8.05;4.25;;;13.60;85.50;;;;;;5039855;28;20071;-78
2021/12/26 09:25:03;;;;;;;8.48;4.80;;;13.60;85.10;;;;;;5039406;28;20593;-83
2021/12/26 09:27:32;;;;;;;8.13;5.13;;;13.70;85.00;;;;;;5039140;28;20017;-83
2021/12/26 09:29:58;;;;;;;19.80;7.20;;;14.50;85.20;;;;;;5038594;28;20033;-83
2021/12/26 09:32:24;;;;;;;77.57;10.65;;;13.70;84.90;;;;;;5042248;28;20071;-79
2021/12/26 09:34:49;;;;;;;35.75;7.90;;;13.70;84.50;;;;;;5041450;28;20056;-80
2021/12/26 09:37:15;;;;;;;22.75;7.55;;;13.70;84.40;;;;;;5043508;28;20031;-79
2021/12/26 09:39:41;;;;;;;17.80;6.05;;;13.00;83.90;;;;;;5042723;28;20013;-83
2021/12/26 09:42:07;;;;;;;12.40;6.43;;;13.80;84.70;;;;;;5038486;28;20049;-84
2021/12/26 09:44:38;;;;;;;30.02;8.13;;;13.90;84.90;;;;;;5037579;28;20086;-80
2021/12/26 09:47:05;;;;;;;15.48;6.43;;;13.90;84.10;;;;;;5039158;28;20217;-81
2021/12/26 09:49:32;;;;;;;11.85;5.95;;;14.00;83.70;;;;;;5038844;28;20441;-84
2021/12/26 09:51:58;;;;;;;15.35;7.55;;;14.00;82.70;;;;;;5038363;28;20116;-82
2021/12/26 09:54:23;;;;;;;17.05;9.50;;;15.40;82.40;;;;;;5041342;28;20049;-83
2021/12/26 09:56:49;;;;;;;21.70;12.20;;;14.10;82.80;;;;;;5040285;28;20087;-81
2021/12/26 09:59:19;;;;;;;21.15;10.55;;;14.20;82.20;;;;;;5039651;28;20053;-83
2021/12/26 10:01:48;;;;;;;23.27;13.65;;;14.30;82.50;;;;;;5038485;28;20510;-82
2021/12/26 10:04:30;;;;;;;19.42;7.50;;;14.00;80.20;;;;;;5039646;28;20029;-83
2021/12/26 10:07:02;;;;;;;34.75;17.33;;;14.20;78.00;;;;;;5038736;28;20033;-82
2021/12/26 10:09:28;;;;;;;25.33;11.25;;;14.30;78.80;;;;;;5039292;28;20209;-80
2021/12/26 10:11:57;;;;;;;22.13;12.13;;;14.30;79.60;;;;;;5039080;28;20518;-80
2021/12/26 10:14:29;;;;;;;26.50;12.23;;;14.30;79.70;;;;;;5038228;28;20013;-81
2021/12/26 10:17:27;;;;;;;19.48;9.52;;;14.40;79.20;;;;;;5037373;28;20021;-84
2021/12/26 10:20:01;;;;;;;19.38;10.30;;;14.40;80.10;;;;;;5036095;28;20037;-86
2021/12/26 10:22:28;;;;;;;65.55;10.55;;;14.50;79.60;;;;;;5038537;28;20033;-84
2021/12/26 10:24:55;;;;;;;64.80;10.30;;;14.60;79.10;;;;;;5038800;28;20024;-85
2021/12/26 10:27:32;;;;;;;9.57;4.93;;;14.60;78.00;;;;;;5038349;28;20025;-83
2021/12/26 10:30:04;;;;;;;8.30;5.10;;;14.50;78.20;;;;;;5037311;28;20738;-88
2021/12/26 10:32:46;;;;;;;12.68;5.45;;;14.80;78.20;;;;;;5038761;28;20652;-88
2021/12/26 10:35:17;;;;;;;13.02;6.07;;;14.60;78.70;;;;;;5038462;28;20009;-86
2021/12/26 10:37:49;;;;;;;12.13;6.53;;;14.80;79.50;;;;;;5038941;28;20375;-88
2021/12/26 10:40:22;;;;;;;12.60;6.78;;;12.40;76.20;;;;;;5041633;28;20045;-84
2021/12/26 10:42:50;;;;;;;10.57;6.13;;;14.60;78.10;;;;;;5041106;28;20063;-81
2021/12/26 10:45:20;;;;;;;7.97;4.82;;;14.70;77.80;;;;;;5041344;28;20025;-83
2021/12/26 10:47:55;;;;;;;7.72;4.47;;;14.70;77.10;;;;;;5039818;28;20120;-79
2021/12/26 10:50:26;;;;;;;8.85;5.38;;;14.80;77.10;;;;;;5042231;28;20699;-81
2021/12/26 10:52:57;;;;;;;13.90;6.18;;;14.90;75.40;;;;;;5040821;28;20033;-80
2021/12/26 10:55:55;;;;;;;9.77;6.00;;;15.00;76.90;;;;;;5041780;28;20554;-79
2021/12/26 10:58:23;;;;;;;10.07;5.40;;;15.30;77.70;;;;;;5041911;28;20024;-78
2021/12/26 11:00:55;;;;;;;6.97;4.43;;;16.00;75.90;;;;;;5040860;28;20021;-86
2021/12/26 11:03:25;;;;;;;8.40;4.60;;;15.30;75.90;;;;;;5039936;28;20037;-86
2021/12/26 11:05:54;;;;;;;9.25;5.30;;;15.10;76.60;;;;;;5040561;28;20021;-84
2021/12/26 11:08:44;;;;;;;12.27;6.63;;;14.90;75.30;;;;;;5041222;28;20990;-78
2021/12/26 11:11:23;;;;;;;12.32;5.45;;;14.90;76.40;;;;;;5043839;28;20021;-77
2021/12/26 11:13:50;;;;;;;7.15;3.35;;;14.90;76.50;;;;;;5043519;28;20743;-83
2021/12/26 11:16:16;;;;;;;6.10;3.97;;;14.80;75.80;;;;;;5043827;28;20048;-84
2021/12/26 11:18:43;;;;;;;16.08;7.53;;;14.80;76.70;;;;;;5043854;28;20013;-77
2021/12/26 11:21:14;;;;;;;46.65;19.30;;;14.70;77.50;;;;;;5041078;28;20148;-83
2021/12/26 11:23:43;;;;;;;42.30;18.92;;;14.70;78.30;;;;;;5040355;28;20039;-81
2021/12/26 11:26:16;;;;;;;17.58;9.13;;;15.40;80.10;;;;;;5041391;28;20336;-80
2021/12/26 11:28:47;;;;;;;13.57;7.47;;;14.70;77.90;;;;;;5039716;28;20013;-79
2021/12/26 11:31:14;;;;;;;17.88;8.00;;;14.80;77.40;;;;;;5041569;28;20032;-82
2021/12/26 11:33:41;;;;;;;14.20;8.02;;;14.80;77.70;;;;;;5039865;28;20192;-84
2021/12/26 11:36:11;;;;;;;14.07;7.20;;;14.60;77.40;;;;;;5038914;28;20036;-81
2021/12/26 11:38:38;;;;;;;13.93;7.07;;;14.60;78.10;;;;;;5039254;28;20021;-85
2021/12/26 11:41:24;;;;;;;21.60;8.30;;;14.50;78.30;;;;;;5041056;28;20025;-83
2021/12/26 11:44:25;;;;;;;23.58;10.00;;;14.30;80.00;;;;;;5041549;28;20687;-87
2021/12/26 11:47:12;;;;;;;17.52;8.35;;;14.40;80.40;;;;;;4964233;28;20603;-81
2021/12/26 11:49:50;;;;;;;13.43;7.82;;;14.30;80.20;;;;;;4978589;28;20018;-86
2021/12/26 11:52:53;;;;;;;15.82;7.97;;;14.30;82.60;;;;;;4977882;28;20346;-87
2021/12/26 11:55:56;;;;;;;16.15;8.75;;;14.30;81.70;;;;;;4978048;28;20034;-82
2021/12/26 11:58:50;;;;;;;20.67;8.10;;;15.10;83.50;;;;;;4962156;28;20240;-87
2021/12/26 12:01:27;;;;;;;23.38;9.52;;;14.30;86.10;;;;;;4978792;28;20049;-83
2021/12/26 12:04:12;;;;;;;13.88;8.70;;;12.50;86.70;;;;;;4962451;28;20078;-82
2021/12/26 12:06:47;;;;;;;22.53;8.37;;;14.00;88.20;;;;;;4961673;28;20030;-90
2021/12/26 12:09:29;;;;;;;;;;;12.60;87.70;;;;;;4979430;28;20073;-79
2021/12/26 12:12:04;;;;;;;20.55;9.70;;;12.70;88.20;;;;;;4977735;28;19906;-79
2021/12/26 12:14:52;;;;;;;18.55;9.73;;;14.30;90.50;;;;;;4978181;28;20422;-82
2021/12/26 12:17:30;;;;;;;17.45;9.68;;;14.00;91.10;;;;;;4961839;28;20026;-82
2021/12/26 12:20:17;;;;;;;17.90;9.88;;;14.30;88.80;;;;;;4961435;28;20634;-81
2021/12/26 12:23:06;;;;;;;28.05;11.13;;;14.10;88.20;;;;;;4977830;28;20026;-84
2021/12/26 12:25:52;;;;;;;23.33;10.85;;;14.00;88.10;;;;;;5039769;28;20459;-80
2021/12/26 12:28:47;;;;;;;25.33;10.70;;;14.30;89.10;;;;;;5039893;28;20472;-85
2021/12/26 12:31:17;;;;;;;14.63;7.53;;;14.10;89.60;;;;;;4961228;28;20030;-83
2021/12/26 12:33:44;;;;;;;12.32;6.22;;;14.40;86.50;;;;;;4977133;28;20256;-87
2021/12/26 12:36:34;;;;;;;13.77;5.80;;;14.20;85.00;;;;;;4961816;28;20035;-86
2021/12/26 12:39:18;;;;;;;15.82;7.43;;;14.20;85.50;;;;;;4920625;29;20046;-78
2021/12/26 12:41:51;;;;;;;16.20;8.23;;;14.30;85.40;;;;;;4925223;29;20290;-82
2021/12/26 12:44:32;;;;;;;16.30;8.35;;;14.00;85.50;;;;;;4925295;29;20042;-88
2021/12/26 12:47:14;;;;;;;12.85;6.45;;;14.30;86.30;;;;;;4910053;29;20043;-79
2021/12/26 12:50:03;;;;;;;15.23;6.57;;;14.30;85.30;;;;;;4920530;29;20373;-83
2021/12/26 12:52:50;;;;;;;20.85;12.43;;;14.20;86.90;;;;;;4920170;29;20110;-87
2021/12/26 12:55:18;;;;;;;13.43;7.68;;;14.10;86.50;;;;;;4904197;29;20357;-78
2021/12/26 12:57:51;;;;;;;13.07;7.13;;;14.00;87.50;;;;;;4903740;29;20042;-82
2021/12/26 13:00:26;;;;;;;16.73;8.57;;;13.90;87.20;;;;;;4903109;29;20155;-84
2021/12/26 13:02:54;;;;;;;20.65;12.15;;;13.90;89.20;;;;;;4903812;29;20071;-83